Tuesday, January 27, 2015
23:01 UTC
  |  Log In   |  Register Free
Airport Search:

Northeast Philadelphia Airport
(KPNE)

FAA data valid effective January 08, 2015 - March 05, 2015 (unless otherwise noted).

 
 
 
 
 
 
 
 
 
 
 
 
 
 

Current Aviation Weather for Northeast Philadelphia Airport (KPNE)

The most recent METAR observation for KPNE was updated at: 2218
METAR Summary (Translated METAR)
KPNE
272154Z AUTO 32009KT 10SM CLR 01/M13 A2973 RMK AO2 SLP069 T00061128 TSNO
KVAY
272154Z AUTO 32010G15KT 10SM CLR M01/M11 A2971 RMK AO2 SLP062 T10061106
(11.3 nm SE from KPNE)
KLOM
272155Z AUTO 33007G16KT 10SM CLR 00/M11 A2971 RMK AO1
(12.2 nm NW from KPNE)
TAF Summary (Translated TAF)
KPNE
271737Z 2718/2818 33012G21KT P6SM BKN040 TEMPO 2718/2720 3SM -SN OVC020 FM272000 33012G21KT P6SM BKN080 FM272300 31012KT P6SM SCT025 FM281500 33012G22KT P6SM FEW025
  Airport Weather Conditions for KPNE

 Current Weather at PNE
33° F
Fair
Northwest winds at 10.4 mph
PNE NOAA Radar

Pressure: 29.73 in
Humidity: 36%
Wind: Northwest at 10.4 MPH (9 KT)
Dew Point: 9.0°F
Visibility: 10.00 mi


Airport Weather Forecast for KPNE

Translated METAR and TAF for KPNE
Translated METAR for KPNE (2301 UTC 27 January 2015)
found at http://aviationweather.gov/adds/metars/
 
METAR text: KPNE 272254Z AUTO 33015G20KT 10SM CLR 00/M13 A2976 RMK AO2 SLP078 T00001133 TSNO
Conditions at: KPNE (PHILADELPHIA/NE , PA, US) observed 2254 UTC 27 January 2015
Temperature: 0.0°C (32°F)
Dewpoint: -13.3°C (8°F) [RH = 36%]
Pressure (altimeter): 29.76 inches Hg (1007.9 mb)
[Sea-level pressure: 1007.8 mb]
Winds: from the NNW (330 degrees) at 17 MPH (15 knots; 7.8 m/s)
gusting to 23 MPH (20 knots; 10.4 m/s)
Visibility: 10 or more miles (16+ km)
Ceiling: at least 12,000 feet AGL
Clouds: sky clear below 12,000 feet AGL
Weather: automated observation with no human augmentation;
there may or may not be significant weather present at this time
Translated TAF for KPNE
Forecast for: KPNE (PHILADELPHIA/NE , PA, US)
TAF Text: KPNE 271737Z 2718/2818 33012G21KT P6SM BKN040
Forecast period: 1800 to 2000 UTC 27 January 2015
Forecast type: FROM: standard forecast or significant change
Winds: from the NNW (330 degrees) at 14 MPH (12 knots; 6.2 m/s)
gusting to 24 MPH (21 knots; 10.9 m/s)
Visibility: 6 or more miles (10+ km)
Ceiling: 4000 feet AGL
Clouds: broken clouds at 4000 feet AGL
Weather: no significant weather forecast for this period
TAF Text: TEMPO 2718/2720 3SM -SN OVC020
Forecast period: 1800 to 2000 UTC 27 January 2015
Forecast type: TEMPORARY: The following changes expected for less than half the time period
Visibility: 3 miles (5 km)
Ceiling: 2000 feet AGL
Clouds: overcast cloud deck at 2000 feet AGL
Weather: -SN  (light snow)
TAF Text: FM272000 33012G21KT P6SM BKN080
Forecast period: 2000 to 2300 UTC 27 January 2015
Forecast type: FROM: standard forecast or significant change
Winds: from the NNW (330 degrees) at 14 MPH (12 knots; 6.2 m/s)
gusting to 24 MPH (21 knots; 10.9 m/s)
Visibility: 6 or more miles (10+ km)
Ceiling: 8000 feet AGL
Clouds: broken clouds at 8000 feet AGL
Weather: no significant weather forecast for this period
TAF Text: FM272300 31012KT P6SM SCT025
Forecast period: 2300 UTC 27 January 2015 to 1500 UTC 28 January 2015
Forecast type: FROM: standard forecast or significant change
Winds: from the NW (310 degrees) at 14 MPH (12 knots; 6.2 m/s)
Visibility: 6 or more miles (10+ km)
Clouds: scattered clouds at 2500 feet AGL
Weather: no significant weather forecast for this period
TAF Text: FM281500 33012G22KT P6SM FEW025
Forecast period: 1500 to 1800 UTC 28 January 2015
Forecast type: FROM: standard forecast or significant change
Winds: from the NNW (330 degrees) at 14 MPH (12 knots; 6.2 m/s)
gusting to 25 MPH (22 knots; 11.4 m/s)
Visibility: 6 or more miles (10+ km)
Clouds: few clouds at 2500 feet AGL
Weather: no significant weather forecast for this period

Find All Airport Services Find A Hotel Find A Rental Car Find A Golf Course Find A Restaurant $100 Hamburger



FBO's on the Field
FBO Company Facility Photos Services Transportation Aviation Fuel Prices: Prices include tax
Catering Weather Repair Courtesy Rental Type 100LL JetA JetA+ MOGAS 8087
 
Atlantic Aviation

This FBO has not yet been rated
FS:Independent
Last Updated: Jan-27
Login to update fuel prices
SS:
Contact Atlantic AviationMore FBO Information
 
North Philadelphia Jet Center

Currently rated 5 by 2 people
FS:Avfuel
Last Updated: Jan-20
Login to update fuel prices
SS:
Contact North Philadelphia Jet CenterMore FBO Information
 
Add another FBO Facility Photos Catering Weather Repair Courtesy Rental Type 100LL JetA JetA+ MOGAS 8087
Services Transportation Aviation Fuel Prices: Prices include tax


model-print
model-print
model-print
model-print